x

East Superior -70 Nm Ne Marquette, Mi (45004) Wave Buoy

4:50pm - Tue 30th Aug 2016 All times are CDT. -5 hours from GMT.

  • Sig Wave height 2.0ft
  • Swell Direction
  • Peak Period 4s
  • Average Period 3s
  • Wind
    16mph, 20mph gusts
  • Sea Temp 63°f
  • Air Temp 64°f
  • Sea Pressure 1017.3mb
  • East Superior -70 Nm Ne Marquette, Mi
  • East Superior -70 Nm Ne Marquette, Mi

More Historic Weather Station data

Upgrade to MSW Pro to gain access to the past 30 days of data for over 8000 Wavebouys and Weather Stations around the globe.

Join Pro

Comparision Forecast

View Surf forecast
   
Tue 08/30 4:50pm 2ft 4s 3s 16 20 mph 1017.3mb 63f 64f
3:50pm 1.6ft 3s 3s 13 18 mph 1017.4mb 63f 63f
2:50pm 1.3ft 3s 3s 16 18 mph 1017.5mb 63f 63f
1:50pm 1.3ft 3s 3s 18 20 mph 1017.7mb 63f 63f
12:50pm 1.3ft 4s 3s 11 13 mph 1017.9mb 63f 63f
11:50am 1.3ft 4s 3s 13 16 mph 1017.8mb 63f 63f
10:50am 1.3ft 4s 4s 13 16 mph 1017.9mb 63f 63f
9:50am 1.3ft 4s 4s 11 13 mph 1017.7mb 63f 63f
8:50am 1.3ft 3s 3s 4 7 mph 1017.4mb 62f 63f
7:50am 1ft 2s 3s 9 11 mph 1017mb 62f 63f
6:50am 1ft 3s 3s 9 11 mph 1017.4mb 62f 63f
5:50am 1ft 3s 3s 4 7 mph 1017.4mb 62f 63f
4:50am 1ft 4s 3s 11
mph
1017.4mb 62f 64f
3:50am 1ft 4s 3s 11 13 mph 1017.2mb 62f 65f
2:50am 1ft 4s 3s 7 9 mph 1017.3mb 62f 65f
1:50am 1.3ft 4s 4s 7
mph
1017.3mb 62f 65f
12:50am 1.3ft 4s 4s 4
mph
1017.3mb 63f 65f
Mon 08/29 11:50pm 1.3ft 4s 4s 7 9 mph 1017.3mb 63f 65f
10:50pm 1.6ft 4s 4s 7
mph
1017.9mb 63f 66f
9:50pm 1.6ft 5s 4s 7
mph
1018.4mb 63f 66f
8:50pm 1.6ft 5s 4s 4
mph
1018.8mb 63f 65f
7:50pm 1.6ft 4s 4s 7 9 mph 1018.8mb 63f 64f
6:50pm 2ft 4s 4s 2 4 mph 1018.7mb 63f 66f
5:50pm 2.5ft 4s 4s 4 7 mph 1019.2mb 62f 65f
4:50pm 3ft 4s  -  9 11 mph 1019.4mb 62f 65f
3:50pm 2.5ft 4s 4s 11 13 mph 1019.3mb 62f 66f
2:50pm 3.5ft 4s 4s 16 22 mph 1019.5mb 62f 68f
1:50pm 3ft 4s 4s 18 22 mph 1020mb 62f 65f
12:50pm 3ft 4s 4s 20 25 mph 1020.2mb 62f 64f
11:50am 2.5ft 4s 4s 18 22 mph 1021.2mb 62f 64f
10:50am 2ft 3s 3s 20 22 mph 1021.7mb 62f 63f
9:50am 1.6ft 3s 3s 16 18 mph 1023mb 62f 63f
8:50am 1.3ft 3s 3s 13 18 mph 1023.6mb 62f 63f
7:50am 1ft 3s 3s 13 16 mph 1023.9mb 62f 63f
6:50am 0.7ft  -  3s 11 13 mph 1023.5mb 62f 63f
5:50am 0.3ft  -  3s 11 13 mph 1023.4mb 62f 63f
4:50am 0.3ft  -  3s 9 11 mph 1023.7mb 62f 62f
3:50am 0.3ft  -  3s 7
mph
1023.8mb 62f 62f
2:50am 0.3ft  -  3s 7
mph
1023.9mb 62f 62f
1:50am 0.7ft  -  3s 4
mph
1024.1mb 62f 62f
12:50am 0.7ft  -  3s 2 4 mph 1023.7mb 62f 62f
Sun 08/28 11:50pm 0.7ft  -  3s 4
mph
1023.8mb 62f 62f
10:50pm 0.7ft  -  3s 2 4 mph 1023.8mb 62f 62f
9:50pm 0.7ft  -  3s 2
mph
1023.4mb 62f 62f
8:50pm 0.7ft  -  3s  -  mph 1023.2mb 62f 62f
7:50pm 1ft 4s 3s 2 4 mph 1023.1mb 62f 62f
6:50pm 1ft 4s 3s 2
mph
1022.5mb 62f 63f
5:50pm 1ft 4s 3s 4 7 mph 1022.3mb 62f 63f
4:50pm 1ft 3s 3s 7 9 mph 1022.2mb 62f 62f
3:50pm 1.3ft 4s 3s 9
mph
1022.4mb 62f 62f
2:50pm 1.3ft 4s 3s 11 13 mph 1022.4mb 62f 62f
1:50pm 1ft 3s 3s 11 13 mph 1022.4mb 62f 62f
12:50pm 0.7ft  -  3s 11 13 mph 1021.8mb 62f 62f
11:50am 0.3ft  -  3s 11
mph
1021.5mb 62f 62f
10:50am 0.7ft  -  3s 9 11 mph 1020.9mb 62f 62f
9:50am 0.7ft  -  3s 7 9 mph 1020.5mb 62f 62f
8:50am 0.7ft  -  3s 7 9 mph 1020.1mb 62f 62f
7:50am 0.7ft  -  3s 2 4 mph 1019.7mb 61f 61f
6:50am 0.7ft  -  3s 2 4 mph 1019.2mb 61f 60f
5:50am 1ft 4s 3s 4
mph
1018.4mb 61f 60f
4:50am 1ft 4s 3s 4 7 mph 1017.9mb 62f 61f
3:50am 1ft 4s 3s 2 4 mph 1017.2mb 62f 62f
2:50am 1.3ft 4s 3s 2 4 mph 1017.5mb 62f 62f
1:50am 1.3ft 4s 3s 4
mph
1017.1mb 62f 62f
12:50am 1.3ft 4s 3s 4 7 mph 1017.3mb 62f 62f
Sat 08/27 11:50pm 1.6ft 4s 3s 11 13 mph 1017mb 62f 62f
10:50pm 1.3ft 4s 3s 11 13 mph 1017.3mb 62f 62f
9:50pm 1ft 4s 3s 9 11 mph 1017.1mb 62f 62f
8:50pm 1.3ft 4s 3s 9
mph
1017.8mb 62f 62f
7:50pm 1.3ft 4s 3s 9
mph
1018mb 62f 62f
6:50pm 1.6ft 4s 3s 9 11 mph 1018.1mb 62f 62f
5:50pm 1.3ft 3s 3s 9 11 mph 1018.4mb 62f 62f
4:50pm 1.6ft 4s 3s 11 13 mph 1018.3mb 62f 62f
3:50pm 1.3ft 3s 3s 11 13 mph 1018.6mb 61f 62f
2:50pm 1.3ft 3s 3s 13 18 mph 1018.9mb 61f 62f
1:50pm 1ft 3s 3s 13 16 mph 1019.3mb 61f 61f
12:50pm 1ft 3s 3s 11
mph
1019.9mb 61f 61f
11:50am 0.7ft  -  3s 9
mph
1020.6mb 61f 61f
10:50am 0.7ft  -  3s 9 11 mph 1020.9mb 61f 61f
9:50am 0.3ft  -  3s 9 11 mph 1021.2mb 61f 61f
8:50am 0.3ft  -  3s 9 11 mph 1021.6mb 61f 61f
7:50am 0.3ft  -  3s 7
mph
1021.5mb 61f 61f
6:50am 0.7ft  -  3s 4 7 mph 1021.2mb 61f 60f
5:50am 0.7ft  -  3s 7
mph
1021.5mb 61f 60f
4:50am 0.7ft  -  3s 4
mph
1021.3mb 61f 60f
3:50am 0.7ft  -  3s 4
mph
1020.9mb 61f 60f
2:50am 0.7ft  -  3s 2
mph
1020.8mb 61f 60f
1:50am 0.7ft  -  3s 4 7 mph 1021.5mb 60f 60f
12:50am 1ft 3s 3s 4
mph
1021.6mb 60f 60f
Fri 08/26 11:50pm 1ft 3s 3s 2
mph
1021.2mb 60f 60f